createdAt,value
2023-03-06T00:01:27.873Z,101031.03
2023-03-06T00:03:55.205Z,101030.19
2023-03-06T00:06:22.143Z,101018.34
2023-03-06T00:08:48.581Z,101020.88
2023-03-06T00:11:15.444Z,101018.34
2023-03-06T00:13:41.876Z,101012.44
2023-03-06T00:16:08.834Z,101009.88
2023-03-06T00:18:35.343Z,101011.56
2023-03-06T00:21:01.742Z,101011.53
2023-03-06T00:23:28.388Z,100999.72
2023-03-06T00:25:54.851Z,100999.72
2023-03-06T00:28:21.283Z,100993.78
2023-03-06T00:30:47.704Z,100993.78
2023-03-06T00:33:14.118Z,100990.38
2023-03-06T00:35:41.656Z,100987.84
2023-03-06T00:38:09.847Z,100984.47
2023-03-06T00:40:36.285Z,100981.94
2023-03-06T00:43:02.653Z,100971.81
2023-03-06T00:45:29.618Z,100965.03
2023-03-06T00:47:56.024Z,100957.44
2023-03-06T00:50:22.447Z,100954.84
2023-03-06T00:52:49.041Z,100956.56
2023-03-06T00:55:15.576Z,100944.72
2023-03-06T00:57:42.048Z,100946.44
2023-03-06T01:00:10.955Z,100948.13
2023-03-06T01:02:37.370Z,100942.25
2023-03-06T01:05:04.924Z,100945.59
2023-03-06T01:07:33.967Z,100942.25
2023-03-06T01:10:00.375Z,100931.25
2023-03-06T01:12:26.833Z,100935.47
2023-03-06T01:14:53.469Z,100932.13
2023-03-06T01:17:19.855Z,100930.41
2023-03-06T01:19:46.210Z,100926.19
2023-03-06T01:22:12.586Z,100920.28
2023-03-06T01:24:39.169Z,100921.13
2023-03-06T01:27:05.675Z,100927.88
2023-03-06T01:29:32.088Z,100924.47
2023-03-06T01:31:58.516Z,100925.34
2023-03-06T01:34:25.050Z,100919.41
2023-03-06T01:36:51.551Z,100914.34
2023-03-06T01:39:18.046Z,100921.94
2023-03-06T01:41:45.028Z,100921.09
2023-03-06T01:44:13.729Z,100928.69
2023-03-06T01:46:45.146Z,100920.22
2023-03-06T01:49:26.297Z,100922.75
2023-03-06T01:51:55.564Z,100917.66
2023-03-06T01:54:28.352Z,100914.28
2023-03-06T01:57:03.323Z,100908.38
2023-03-06T01:59:30.866Z,100905.00
2023-03-06T02:01:58.573Z,100910.88
2023-03-06T02:04:25.151Z,100909.16
2023-03-06T02:06:51.795Z,100891.44
2023-03-06T02:09:18.378Z,100891.44
2023-03-06T02:11:46.163Z,100887.19
2023-03-06T02:14:15.225Z,100886.34
2023-03-06T02:16:43.195Z,100882.97
2023-03-06T02:19:27.276Z,100883.81
2023-03-06T02:21:53.808Z,100882.13
2023-03-06T02:24:29.703Z,100881.28
2023-03-06T02:26:57.151Z,100888.88
2023-03-06T02:29:28.049Z,100884.63
2023-03-06T02:31:54.768Z,100883.75
2023-03-06T02:34:21.060Z,100882.09
2023-03-06T02:36:50.867Z,100873.63
2023-03-06T02:39:20.252Z,100876.16
2023-03-06T02:41:46.617Z,100872.81
2023-03-06T02:44:13.216Z,100868.59
2023-03-06T02:46:39.650Z,100867.78
2023-03-06T02:49:06.162Z,100867.78
2023-03-06T02:51:32.542Z,100856.84
2023-03-06T02:53:58.891Z,100850.94
2023-03-06T02:56:25.308Z,100850.97
2023-03-06T02:58:52.523Z,100844.22
2023-03-06T03:01:18.937Z,100833.28
2023-03-06T03:03:45.380Z,100831.63
2023-03-06T03:06:11.788Z,100828.22
2023-03-06T03:08:38.282Z,100829.94
2023-03-06T03:11:05.793Z,100827.41
2023-03-06T03:13:32.875Z,100823.22
2023-03-06T03:16:08.740Z,100813.09
2023-03-06T03:18:35.765Z,100808.03
2023-03-06T03:21:02.522Z,100795.38
2023-03-06T03:23:28.943Z,100800.44
2023-03-06T03:25:55.351Z,100798.75
2023-03-06T03:28:21.788Z,100799.63
2023-03-06T03:30:48.313Z,100792.88
2023-03-06T03:33:14.730Z,100801.28
2023-03-06T03:35:41.283Z,100796.25
2023-03-06T03:38:07.736Z,100797.94
2023-03-06T03:40:34.141Z,100790.34
2023-03-06T03:43:00.548Z,100782.75
2023-03-06T03:45:27.167Z,100786.13
2023-03-06T03:47:53.582Z,100786.97
2023-03-06T03:50:20.281Z,100784.44
2023-03-06T03:52:46.811Z,100779.38
2023-03-06T03:55:13.573Z,100774.31
2023-03-06T03:57:40.082Z,100770.97
2023-03-06T04:00:08.034Z,100771.78
2023-03-06T04:02:34.483Z,100765.06
2023-03-06T04:05:01.022Z,100770.13
2023-03-06T04:07:27.521Z,100771.81
2023-03-06T04:09:53.911Z,100766.75
2023-03-06T04:12:20.301Z,100764.22
2023-03-06T04:14:46.732Z,100764.22
2023-03-06T04:17:13.423Z,100757.47
2023-03-06T04:19:39.840Z,100751.56
2023-03-06T04:22:06.197Z,100754.09
2023-03-06T04:24:32.570Z,100753.22
2023-03-06T04:26:59.019Z,100746.50
2023-03-06T04:29:25.499Z,100749.03
2023-03-06T04:31:51.893Z,100743.09
2023-03-06T04:34:18.278Z,100746.50
2023-03-06T04:36:47.520Z,100741.44
2023-03-06T04:39:14.595Z,100735.50
2023-03-06T04:41:41.729Z,100729.59
2023-03-06T04:44:08.605Z,100737.19
2023-03-06T04:46:35.907Z,100743.13
2023-03-06T04:49:02.741Z,100726.25
2023-03-06T04:51:29.540Z,100732.13
2023-03-06T04:53:56.044Z,100733.00
2023-03-06T04:56:22.548Z,100732.13
2023-03-06T04:58:49.041Z,100720.34
2023-03-06T05:01:15.471Z,100722.03
2023-03-06T05:03:41.971Z,100723.69
2023-03-06T05:06:08.497Z,100725.38
2023-03-06T05:08:35.115Z,100727.09
2023-03-06T05:11:02.003Z,100723.72
2023-03-06T05:13:29.122Z,100727.91
2023-03-06T05:15:55.569Z,100725.38
2023-03-06T05:18:21.983Z,100725.38
2023-03-06T05:20:48.372Z,100722.00
2023-03-06T05:23:14.798Z,100722.00
2023-03-06T05:25:42.124Z,100721.97
2023-03-06T05:28:08.592Z,100723.66
2023-03-06T05:30:35.392Z,100718.59
2023-03-06T05:33:01.906Z,100714.41
2023-03-06T05:35:28.542Z,100712.69
2023-03-06T05:37:55.064Z,100707.63
2023-03-06T05:40:21.549Z,100710.16
2023-03-06T05:42:48.107Z,100701.72
2023-03-06T05:45:14.696Z,100705.09
2023-03-06T05:47:41.385Z,100701.72
2023-03-06T05:50:10.244Z,100707.63
2023-03-06T05:52:37.741Z,100698.34
2023-03-06T05:55:04.451Z,100698.34
2023-03-06T05:57:30.867Z,100700.88
2023-03-06T05:59:57.237Z,100705.97
2023-03-06T06:02:23.774Z,100702.56
2023-03-06T06:04:50.236Z,100698.38
2023-03-06T06:07:17.323Z,100707.66
2023-03-06T06:09:45.635Z,100703.41
2023-03-06T06:12:12.905Z,100707.66
2023-03-06T06:14:39.271Z,100711.88
2023-03-06T06:17:05.786Z,100711.88
2023-03-06T06:19:32.371Z,100719.47
2023-03-06T06:21:58.816Z,100720.31
2023-03-06T06:24:26.482Z,100725.38
2023-03-06T06:26:54.934Z,100721.16
2023-03-06T06:29:22.532Z,100723.69
2023-03-06T06:31:49.601Z,100734.66
2023-03-06T06:34:16.285Z,100726.22
2023-03-06T06:36:42.837Z,100726.19
2023-03-06T06:39:11.415Z,100726.19
2023-03-06T06:44:24.309Z,100723.63
2023-03-06T06:49:38.003Z,100724.47
2023-03-06T06:52:05.289Z,100726.16
2023-03-06T06:54:33.354Z,100713.47
2023-03-06T06:56:59.992Z,100725.28
2023-03-06T06:59:26.381Z,100725.28
2023-03-06T07:01:52.920Z,100722.72
2023-03-06T07:04:19.914Z,100722.72
2023-03-06T07:06:46.342Z,100728.66
2023-03-06T07:09:13.557Z,100731.16
2023-03-06T07:11:41.090Z,100732.84
2023-03-06T07:14:07.897Z,100736.22
2023-03-06T07:16:34.401Z,100730.31
2023-03-06T07:19:00.861Z,100734.50
2023-03-06T07:21:27.288Z,100741.25
2023-03-06T07:23:54.284Z,100741.25
2023-03-06T07:26:20.718Z,100732.78
2023-03-06T07:28:52.702Z,100736.19
2023-03-06T07:31:22.334Z,100743.75
2023-03-06T07:33:49.759Z,100740.34
2023-03-06T07:36:16.345Z,100743.72
2023-03-06T07:38:42.878Z,100736.91
2023-03-06T07:41:13.578Z,100746.19
2023-03-06T07:43:41.060Z,100742.78
2023-03-06T07:46:08.474Z,100743.56
2023-03-06T07:48:35.838Z,100745.16
2023-03-06T07:51:05.215Z,100744.25
2023-03-06T07:53:32.356Z,100742.44
2023-03-06T07:55:59.213Z,100739.81
2023-03-06T07:58:26.140Z,100746.44
2023-03-06T08:00:53.167Z,100742.97
2023-03-06T08:03:19.592Z,100746.25
2023-03-06T08:05:46.034Z,100750.34
2023-03-06T08:08:12.757Z,100740.88
2023-03-06T08:10:39.316Z,100745.06
2023-03-06T08:13:06.634Z,100749.31
2023-03-06T08:15:33.091Z,100746.84
2023-03-06T08:17:59.711Z,100749.41
2023-03-06T08:20:26.176Z,100748.59
2023-03-06T08:22:52.806Z,100752.78
2023-03-06T08:25:19.321Z,100746.84
2023-03-06T08:27:47.321Z,100751.00
2023-03-06T08:30:14.102Z,100742.53
2023-03-06T08:32:40.603Z,100746.75
2023-03-06T08:35:07.836Z,100745.97
2023-03-06T08:37:34.324Z,100751.84
2023-03-06T08:40:03.544Z,100753.50
2023-03-06T08:42:30.618Z,100750.88
2023-03-06T08:44:57.034Z,100749.94
2023-03-06T08:47:23.511Z,100743.91
2023-03-06T08:49:50.017Z,100742.00
2023-03-06T08:52:17.058Z,100745.16
2023-03-06T08:54:43.446Z,100741.56
2023-03-06T08:57:09.845Z,100738.69
2023-03-06T08:59:36.647Z,100745.31
2023-03-06T09:02:03.987Z,100743.38
2023-03-06T09:04:31.503Z,100736.59
2023-03-06T09:07:00.086Z,100736.38
2023-03-06T09:09:26.599Z,100737.94
2023-03-06T09:11:53.615Z,100735.28
2023-03-06T09:14:20.121Z,100739.31
2023-03-06T09:16:46.538Z,100737.59
2023-03-06T09:19:12.975Z,100736.13
2023-03-06T09:21:39.507Z,100735.09
2023-03-06T09:24:06.443Z,100740.94
2023-03-06T09:26:44.980Z,100739.03
2023-03-06T09:29:15.400Z,100732.53
2023-03-06T09:31:41.849Z,100734.06
2023-03-06T09:34:08.289Z,100731.75
2023-03-06T09:36:49.270Z,100730.28
2023-03-06T09:39:21.085Z,100729.94
2023-03-06T09:41:49.707Z,100734.88
2023-03-06T09:44:23.513Z,100734.22
2023-03-06T09:47:23.867Z,100735.16
2023-03-06T09:50:09.843Z,100733.31
2023-03-06T09:52:36.227Z,100734.72
2023-03-06T09:55:11.426Z,100721.66
2023-03-06T09:58:07.152Z,100737.22
2023-03-06T10:00:39.679Z,100729.91
2023-03-06T10:03:41.417Z,100731.72
2023-03-06T10:06:26.610Z,100731.03
2023-03-06T10:09:02.739Z,100743.81
2023-03-06T10:11:41.666Z,100739.41
2023-03-06T10:14:21.915Z,100737.50
2023-03-06T10:16:48.658Z,100735.81
2023-03-06T10:19:18.040Z,100740.81
2023-03-06T10:22:21.372Z,100732.47
2023-03-06T10:24:50.760Z,100730.81
2023-03-06T10:27:48.832Z,100733.53
2023-03-06T10:30:15.300Z,100730.97
2023-03-06T10:32:51.274Z,100730.50
2023-03-06T10:35:25.762Z,100723.91
2023-03-06T10:37:59.555Z,100727.63
2023-03-06T10:40:35.309Z,100727.56
2023-03-06T10:43:11.368Z,100727.19
2023-03-06T10:45:53.162Z,100726.44
2023-03-06T10:48:28.604Z,100728.38
2023-03-06T10:51:18.703Z,100718.69
2023-03-06T10:53:57.779Z,100721.84
2023-03-06T10:56:36.590Z,100718.19
2023-03-06T10:59:13.666Z,100717.28
2023-03-06T11:01:42.484Z,100717.19
2023-03-06T11:04:21.139Z,100714.22
2023-03-06T11:06:47.738Z,100710.03
2023-03-06T11:09:21.106Z,100713.16
2023-03-06T11:11:47.543Z,100706.09
2023-03-06T11:14:19.839Z,100700.78
2023-03-06T11:16:53.270Z,100704.28
2023-03-06T11:19:27.283Z,100692.53
2023-03-06T11:22:03.644Z,100697.78
2023-03-06T11:24:41.422Z,100699.19
2023-03-06T11:27:34.524Z,100693.09
2023-03-06T11:30:19.871Z,100688.53
2023-03-06T11:32:53.995Z,100686.94
2023-03-06T11:35:24.544Z,100688.66
2023-03-06T11:38:00.789Z,100677.81
2023-03-06T11:40:36.253Z,100680.56
2023-03-06T11:43:19.580Z,100678.63
2023-03-06T11:45:48.494Z,100682.03
2023-03-06T11:48:14.846Z,100669.25
2023-03-06T11:50:44.066Z,100672.03
2023-03-06T11:53:13.384Z,100663.13
2023-03-06T11:55:50.822Z,100664.69
2023-03-06T11:58:35.911Z,100659.03
2023-03-06T12:01:08.731Z,100662.75
2023-03-06T12:04:03.077Z,100664.03
2023-03-06T12:06:47.949Z,100653.34
2023-03-06T12:09:14.363Z,100655.19
2023-03-06T12:12:06.946Z,100651.03
2023-03-06T12:14:50.380Z,100647.41
2023-03-06T12:17:35.946Z,100656.06
2023-03-06T12:20:15.816Z,100646.75
2023-03-06T12:23:02.479Z,100644.75
2023-03-06T12:25:45.053Z,100645.75
2023-03-06T12:28:14.522Z,100647.19
2023-03-06T12:30:57.948Z,100644.47
2023-03-06T12:33:50.663Z,100635.31
2023-03-06T12:36:23.107Z,100637.84
2023-03-06T12:39:11.437Z,100633.84
2023-03-06T12:42:23.099Z,100630.69
2023-03-06T12:45:12.937Z,100617.63
2023-03-06T12:47:46.538Z,100621.09
2023-03-06T12:50:28.759Z,100619.13
2023-03-06T12:52:58.502Z,100624.66
2023-03-06T12:55:26.148Z,100623.69
2023-03-06T12:57:53.843Z,100617.72
2023-03-06T13:00:32.663Z,100614.81
2023-03-06T13:03:29.551Z,100602.31
2023-03-06T13:06:04.939Z,100594.91
2023-03-06T13:09:04.064Z,100592.75
2023-03-06T13:12:04.147Z,100591.28
2023-03-06T13:14:54.962Z,100583.53
2023-03-06T13:17:24.292Z,100580.69
2023-03-06T13:20:15.645Z,100573.81
2023-03-06T13:22:45.157Z,100570.66
2023-03-06T13:25:20.661Z,100563.94
2023-03-06T13:27:58.998Z,100569.31
2023-03-06T13:30:43.673Z,100563.25
2023-03-06T13:33:30.046Z,100557.16
2023-03-06T13:35:57.752Z,100543.19
2023-03-06T13:38:53.965Z,100555.91
2023-03-06T13:41:20.660Z,100540.84
2023-03-06T13:43:48.172Z,100535.72
2023-03-06T13:46:26.988Z,100534.91
2023-03-06T13:49:24.111Z,100534.22
2023-03-06T13:51:53.470Z,100532.69
2023-03-06T13:54:38.096Z,100529.88
2023-03-06T13:57:15.562Z,100527.22
2023-03-06T14:00:17.369Z,100526.28
2023-03-06T14:03:20.407Z,100518.19
2023-03-06T14:05:49.786Z,100517.38
2023-03-06T14:08:31.451Z,100519.06
2023-03-06T14:11:26.447Z,100511.44
2023-03-06T14:13:55.647Z,100501.25
2023-03-06T14:16:49.050Z,100498.84
2023-03-06T14:19:18.279Z,100506.50
2023-03-06T14:21:44.629Z,100496.53
2023-03-06T14:24:16.308Z,100500.78
2023-03-06T14:26:46.154Z,100499.38
2023-03-06T14:29:21.466Z,100491.31
2023-03-06T14:31:53.701Z,100494.88
2023-03-06T14:34:23.949Z,100494.38
2023-03-06T14:36:53.447Z,100477.72
2023-03-06T14:39:41.956Z,100480.00
2023-03-06T14:42:28.429Z,100474.94
2023-03-06T14:45:17.906Z,100473.22
2023-03-06T14:47:53.690Z,100476.50
2023-03-06T14:50:33.950Z,100481.91
2023-03-06T14:53:12.837Z,100478.63
2023-03-06T14:56:06.316Z,100472.78
2023-03-06T14:59:00.620Z,100474.63
2023-03-06T15:01:35.572Z,100478.78
2023-03-06T15:04:06.904Z,100479.78
2023-03-06T15:06:38.915Z,100459.63
2023-03-06T15:09:25.206Z,100459.81
2023-03-06T15:12:00.932Z,100450.13
2023-03-06T15:14:39.233Z,100450.00
2023-03-06T15:17:45.231Z,100446.34
2023-03-06T15:20:38.028Z,100435.91
2023-03-06T15:23:18.149Z,100445.38
2023-03-06T15:25:56.499Z,100432.78
2023-03-06T15:28:28.276Z,100435.38
2023-03-06T15:31:20.749Z,100435.69
2023-03-06T15:34:05.965Z,100437.34
2023-03-06T15:36:34.458Z,100434.81
2023-03-06T15:39:01.157Z,100432.72
2023-03-06T15:41:38.710Z,100434.47
2023-03-06T15:44:13.851Z,100430.16
2023-03-06T15:46:40.924Z,100427.47
2023-03-06T15:49:14.703Z,100429.16
2023-03-06T15:51:41.220Z,100418.41
2023-03-06T15:54:12.191Z,100423.59
2023-03-06T15:56:42.935Z,100422.16
2023-03-06T15:59:19.109Z,100408.72
2023-03-06T16:01:45.574Z,100406.22
2023-03-06T16:04:12.204Z,100402.97
2023-03-06T16:06:38.898Z,100397.88
2023-03-06T16:09:05.874Z,100407.19
2023-03-06T16:11:43.414Z,100401.38
2023-03-06T16:14:23.761Z,100395.59
2023-03-06T16:16:54.468Z,100405.97
2023-03-06T16:19:26.244Z,100407.22
2023-03-06T16:21:54.037Z,100392.97
2023-03-06T16:24:20.515Z,100394.00
2023-03-06T16:26:50.832Z,100384.88
2023-03-06T16:29:23.158Z,100387.53
2023-03-06T16:31:49.990Z,100389.31
2023-03-06T16:34:19.547Z,100397.97
2023-03-06T16:36:47.319Z,100391.44
2023-03-06T16:39:15.902Z,100385.66
2023-03-06T16:41:42.914Z,100384.94
2023-03-06T16:44:10.228Z,100375.72
2023-03-06T16:46:42.651Z,100379.19
2023-03-06T16:49:16.893Z,100374.13
2023-03-06T16:51:43.329Z,100364.06
2023-03-06T16:54:09.783Z,100365.00
2023-03-06T16:56:36.224Z,100364.06
2023-03-06T16:59:02.654Z,100361.56
2023-03-06T17:01:29.254Z,100358.91
2023-03-06T17:03:55.751Z,100358.91
2023-03-06T17:06:23.405Z,100360.53
2023-03-06T17:08:50.670Z,100354.69
2023-03-06T17:11:20.219Z,100361.47
2023-03-06T17:13:47.826Z,100354.00
2023-03-06T17:16:18.249Z,100345.56
2023-03-06T17:18:45.685Z,100333.84
2023-03-06T17:21:15.632Z,100330.47
2023-03-06T17:23:42.881Z,100333.88
2023-03-06T17:26:12.533Z,100324.53
2023-03-06T17:28:39.989Z,100322.91
2023-03-06T17:31:16.794Z,100325.47
2023-03-06T17:33:43.446Z,100316.91
2023-03-06T17:36:11.011Z,100316.03
2023-03-06T17:38:37.794Z,100315.22
2023-03-06T17:41:05.996Z,100306.84
2023-03-06T17:43:33.571Z,100314.50
2023-03-06T17:46:04.895Z,100310.31
2023-03-06T17:48:31.410Z,100308.63
2023-03-06T17:50:58.300Z,100305.19
2023-03-06T17:53:25.193Z,100304.31
2023-03-06T17:55:51.786Z,100297.59
2023-03-06T17:58:18.251Z,100298.44
2023-03-06T18:00:45.811Z,100295.03
2023-03-06T18:03:12.513Z,100296.69
2023-03-06T18:05:39.046Z,100295.09
2023-03-06T18:08:08.505Z,100293.44
2023-03-06T18:10:34.914Z,100290.06
2023-03-06T18:13:01.269Z,100291.78
2023-03-06T18:15:27.627Z,100285.00
2023-03-06T18:17:54.708Z,100281.72
2023-03-06T18:20:21.120Z,100285.13
2023-03-06T18:22:47.541Z,100287.66
2023-03-06T18:25:14.074Z,100280.09
2023-03-06T18:27:40.481Z,100286.97
2023-03-06T18:30:07.394Z,100274.31
2023-03-06T18:32:33.856Z,100272.72
2023-03-06T18:35:00.505Z,100269.28
2023-03-06T18:37:26.957Z,100265.16
2023-03-06T18:39:54.013Z,100261.84
2023-03-06T18:42:20.456Z,100261.03
2023-03-06T18:44:49.796Z,100250.97
2023-03-06T18:47:16.269Z,100245.94
2023-03-06T18:49:45.159Z,100249.34
2023-03-06T18:52:12.563Z,100237.53
2023-03-06T18:54:39.031Z,100234.16
2023-03-06T18:57:05.499Z,100230.81
2023-03-06T18:59:31.905Z,100235.13
2023-03-06T19:01:59.269Z,100219.88
2023-03-06T19:04:26.307Z,100225.00
2023-03-06T19:06:54.511Z,100219.06
2023-03-06T19:09:21.638Z,100214.03
2023-03-06T19:11:48.629Z,100211.56
2023-03-06T19:14:15.486Z,100205.63
2023-03-06T19:16:42.132Z,100203.09
2023-03-06T19:19:09.456Z,100207.38
2023-03-06T19:21:35.871Z,100191.31
2023-03-06T19:24:03.267Z,100184.59
2023-03-06T19:26:29.737Z,100190.50
2023-03-06T19:28:56.276Z,100182.16
2023-03-06T19:31:26.015Z,100182.22
2023-03-06T19:33:54.872Z,100185.66
2023-03-06T19:36:27.420Z,100168.75
2023-03-06T19:38:55.078Z,100170.47
2023-03-06T19:41:22.021Z,100178.09
2023-03-06T19:43:54.388Z,100161.19
2023-03-06T19:46:21.983Z,100162.88
2023-03-06T19:48:48.695Z,100156.94
2023-03-06T19:51:15.150Z,100158.69
2023-03-06T19:53:41.678Z,100147.69
2023-03-06T19:56:34.306Z,100140.94
2023-03-06T19:59:00.772Z,100135.78
2023-03-06T20:01:28.124Z,100128.22
2023-03-06T20:03:58.700Z,100127.38
2023-03-06T20:06:28.562Z,100129.09
2023-03-06T20:08:55.504Z,100116.41
2023-03-06T20:11:25.737Z,100107.06
2023-03-06T20:13:54.167Z,100102.00
2023-03-06T20:16:20.628Z,100098.59
2023-03-06T20:18:47.093Z,100100.25
2023-03-06T20:21:14.553Z,100082.41
2023-03-06T20:23:41.792Z,100091.69
2023-03-06T20:26:11.801Z,100086.59
2023-03-06T20:28:40.137Z,100078.91
2023-03-06T20:31:19.260Z,100072.91
2023-03-06T20:33:47.901Z,100073.69
2023-03-06T20:36:17.291Z,100057.56
2023-03-06T20:38:44.270Z,100046.56
2023-03-06T20:41:30.786Z,100057.50
2023-03-06T20:44:01.922Z,100066.78
2023-03-06T20:46:28.841Z,100046.41
2023-03-06T20:48:56.250Z,100027.81
2023-03-06T20:51:25.302Z,100036.19
2023-03-06T20:53:55.699Z,100034.47
2023-03-06T20:56:25.889Z,100023.34
2023-03-06T20:58:53.290Z,100025.84
2023-03-06T21:01:25.026Z,100019.09
2023-03-06T21:03:52.572Z,100010.59
2023-03-06T21:06:19.826Z,100013.94
2023-03-06T21:08:47.060Z,100014.78
2023-03-06T21:11:13.676Z,100014.75
2023-03-06T21:13:40.348Z,100010.47
2023-03-06T21:16:09.751Z,100009.56
2023-03-06T21:18:36.529Z,99999.41
2023-03-06T21:21:07.587Z,99994.28
2023-03-06T21:23:34.160Z,99994.25
2023-03-06T21:26:00.559Z,99985.72
2023-03-06T21:28:27.348Z,99986.56
2023-03-06T21:30:56.475Z,99984.84
2023-03-06T21:33:22.984Z,99981.41
2023-03-06T21:35:49.416Z,99987.31
2023-03-06T21:38:15.873Z,99977.16
2023-03-06T21:40:42.780Z,99977.06
2023-03-06T21:43:09.210Z,99974.53
2023-03-06T21:45:35.646Z,99960.09
2023-03-06T21:48:02.188Z,99974.41
2023-03-06T21:50:28.757Z,99971.81
2023-03-06T21:52:56.695Z,99970.06
2023-03-06T21:55:23.380Z,99965.78
2023-03-06T21:57:54.216Z,99974.16
2023-03-06T22:00:23.562Z,99980.03
2023-03-06T22:02:50.488Z,99968.16
2023-03-06T22:05:16.988Z,99967.25
2023-03-06T22:07:43.363Z,99971.44
2023-03-06T22:10:15.557Z,99967.97
2023-03-06T22:12:42.041Z,99959.41
2023-03-06T22:15:09.518Z,99957.69
2023-03-06T22:17:35.948Z,99945.88
2023-03-06T22:20:02.306Z,99944.22
2023-03-06T22:22:28.669Z,99937.53
2023-03-06T22:24:55.051Z,99946.00
2023-03-06T22:27:21.738Z,99942.66
2023-03-06T22:29:48.146Z,99950.28
2023-03-06T22:32:15.391Z,99937.59
2023-03-06T22:34:41.881Z,99946.06
2023-03-06T22:37:08.283Z,99945.22
2023-03-06T22:39:34.676Z,99947.78
2023-03-06T22:42:01.126Z,99939.31
2023-03-06T22:44:27.550Z,99935.19
2023-03-06T22:46:53.979Z,99932.75
2023-03-06T22:49:20.514Z,99931.94
2023-03-06T22:51:46.940Z,99937.06
2023-03-06T22:54:13.594Z,99936.22
2023-03-06T22:56:39.988Z,99937.94
2023-03-06T22:59:06.440Z,99930.41
2023-03-06T23:01:34.210Z,99928.72
2023-03-06T23:04:02.916Z,99927.91
2023-03-06T23:06:37.009Z,99928.72
2023-03-06T23:09:29.857Z,99931.25
2023-03-06T23:11:56.256Z,99926.19
2023-03-06T23:14:22.757Z,99925.38
2023-03-06T23:16:49.213Z,99928.00
2023-03-06T23:19:15.691Z,99936.53
2023-03-06T23:21:42.172Z,99921.31
2023-03-06T23:24:08.682Z,99923.06
2023-03-06T23:26:35.387Z,99915.44
2023-03-06T23:29:02.220Z,99917.13
2023-03-06T23:31:30.210Z,99925.56
2023-03-06T23:33:58.378Z,99924.69
2023-03-06T23:36:24.931Z,99915.34
2023-03-06T23:38:51.560Z,99920.38
2023-03-06T23:41:20.059Z,99921.16
2023-03-06T23:43:48.051Z,99917.69
2023-03-06T23:46:14.840Z,99908.31
2023-03-06T23:48:42.307Z,99912.44
2023-03-06T23:51:18.258Z,99908.09
2023-03-06T23:53:46.354Z,99907.03
2023-03-06T23:56:13.392Z,99917.91
2023-03-06T23:58:40.807Z,99917.84
